Time;durP1;ratioP1;P1;durP2;ratioP2;P2;SDS_P1;SDS_P2;PMS_P1;PMS_P2;Temp;Humidity;BMP_temperature;BMP_pressure;BME280_temperature;BME280_humidity;BME280_pressure;Samples;Min_cycle;Max_cycle;Signal;HPM_P1;HPM_P2
2023/06/07 00:00:51;;;;;;;6.93;4.93;;;;;;;16.11;100.00;96312.28;6156733;23;20471;-79
2023/06/07 00:03:17;;;;;;;8.87;5.00;;;;;;;16.14;100.00;96306.59;6180622;23;20005;-79
2023/06/07 00:05:43;;;;;;;15.30;6.23;;;;;;;15.93;100.00;96311.94;6155771;23;20019;-80
2023/06/07 00:08:09;;;;;;;11.13;5.40;;;;;;;16.00;100.00;96312.81;6155417;23;20437;-79
2023/06/07 00:10:34;;;;;;;9.10;4.40;;;;;;;15.99;100.00;96306.66;6206745;23;19997;-81
2023/06/07 00:13:01;;;;;;;9.20;4.93;;;;;;;16.10;100.00;96308.00;6156860;23;20008;-79
2023/06/07 00:15:26;;;;;;;7.17;4.97;;;;;;;16.22;100.00;96317.06;6156187;23;20013;-79
2023/06/07 00:17:52;;;;;;;8.07;5.27;;;;;;;16.18;100.00;96305.19;6157328;23;20506;-79
2023/06/07 00:20:18;;;;;;;6.50;4.93;;;;;;;16.20;100.00;96297.06;6156335;23;20023;-79
2023/06/07 00:22:44;;;;;;;11.00;5.10;;;;;;;16.25;100.00;96290.13;6156948;23;20059;-79
2023/06/07 00:25:10;;;;;;;7.87;4.87;;;;;;;16.20;100.00;96297.88;6180942;23;20395;-79
2023/06/07 00:27:36;;;;;;;7.60;5.43;;;;;;;16.05;100.00;96298.97;6156544;23;20092;-80
2023/06/07 00:30:05;;;;;;;7.40;4.73;;;;;;;16.12;100.00;96299.84;6162884;23;20008;-79
2023/06/07 00:32:31;;;;;;;7.17;4.60;;;;;;;16.07;100.00;96305.72;6162233;23;20005;-79
2023/06/07 00:34:57;;;;;;;7.77;4.70;;;;;;;15.93;100.00;96301.34;6161935;23;20011;-79
2023/06/07 00:37:23;;;;;;;10.37;5.70;;;;;;;15.95;100.00;96301.94;6162151;23;20341;-79
2023/06/07 00:39:48;;;;;;;8.90;5.57;;;;;;;15.98;100.00;96293.59;6154709;23;19996;-79
2023/06/07 00:42:17;;;;;;;6.93;4.70;;;;;;;15.81;100.00;96285.09;6180693;23;20008;-79
2023/06/07 00:44:43;;;;;;;8.13;5.27;;;;;;;15.84;100.00;96286.56;6180658;23;20008;-79
2023/06/07 00:47:09;;;;;;;6.93;5.30;;;;;;;15.83;100.00;96284.91;6155583;23;20012;-79
2023/06/07 00:49:44;;;;;;;6.30;4.87;;;;;;;15.56;100.00;96289.94;6154852;23;20024;-80
2023/06/07 00:52:11;;;;;;;8.10;5.07;;;;;;;15.75;100.00;96284.03;6155446;23;20005;-79
2023/06/07 00:54:37;;;;;;;6.33;4.90;;;;;;;15.49;100.00;96286.38;6180781;23;20032;-79
2023/06/07 00:57:04;;;;;;;9.10;5.80;;;;;;;15.29;100.00;96284.38;6181743;23;20654;-79
2023/06/07 00:59:30;;;;;;;9.87;6.00;;;;;;;15.41;100.00;96273.28;6155226;23;20437;-79
2023/06/07 01:01:55;;;;;;;11.00;5.80;;;;;;;15.57;100.00;96279.16;6154850;23;20023;-80
2023/06/07 01:04:22;;;;;;;9.10;5.03;;;;;;;15.56;100.00;96279.34;6180759;23;20059;-79
2023/06/07 01:06:48;;;;;;;6.60;4.77;;;;;;;15.44;100.00;96276.38;6155279;23;20032;-79
2023/06/07 01:09:16;;;;;;;7.93;5.60;;;;;;;15.21;100.00;96286.31;6160483;23;20333;-79
2023/06/07 01:11:44;;;;;;;8.40;5.43;;;;;;;15.36;100.00;96283.59;6161704;23;20000;-79
2023/06/07 01:14:11;;;;;;;8.20;5.10;;;;;;;15.12;100.00;96282.13;6161949;23;20009;-79
2023/06/07 01:16:39;;;;;;;9.17;5.37;;;;;;;15.15;100.00;96282.56;6186488;23;20012;-79
2023/06/07 01:19:06;;;;;;;7.40;5.33;;;;;;;15.23;100.00;96274.53;6186182;23;20055;-79
2023/06/07 01:21:36;;;;;;;12.77;6.57;;;;;;;14.99;100.00;96283.63;6186689;23;20467;-79
2023/06/07 01:24:03;;;;;;;8.87;5.80;;;;;;;14.72;100.00;96282.47;6162034;23;20013;-80
2023/06/07 01:26:29;;;;;;;8.27;5.90;;;;;;;14.86;100.00;96283.47;6187165;23;20048;-80
2023/06/07 01:28:55;;;;;;;8.03;5.73;;;;;;;15.00;100.00;96281.78;6186990;23;20717;-80
2023/06/07 01:31:23;;;;;;;7.90;5.73;;;;;;;15.06;100.00;96283.69;6213155;23;20027;-80
2023/06/07 01:33:51;;;;;;;8.07;5.77;;;;;;;15.07;100.00;96288.81;6162362;23;20429;-80
2023/06/07 01:36:18;;;;;;;9.10;5.67;;;;;;;15.23;100.00;96293.06;6186296;23;20009;-80
2023/06/07 01:38:46;;;;;;;8.67;6.03;;;;;;;15.12;100.00;96288.22;6158899;23;20083;-80
2023/06/07 01:41:15;;;;;;;9.50;6.47;;;;;;;15.19;100.00;96285.66;6182060;23;20100;-79
2023/06/07 01:43:41;;;;;;;9.87;6.27;;;;;;;15.42;100.00;96288.16;6153993;23;20011;-80
2023/06/07 01:46:07;;;;;;;7.77;6.00;;;;;;;15.44;100.00;96275.53;6159393;23;20016;-79
2023/06/07 01:48:32;;;;;;;9.63;6.30;;;;;;;15.29;100.00;96276.41;6157394;23;20004;-79
2023/06/07 01:50:58;;;;;;;10.43;6.70;;;;;;;15.20;100.00;96271.44;6204550;23;20009;-80
2023/06/07 01:53:29;;;;;;;9.40;6.80;;;;;;;15.29;100.00;96268.47;6153902;23;20453;-79
2023/06/07 01:56:07;;;;;;;9.60;6.90;;;;;;;15.17;100.00;96279.75;6181324;23;20015;-79
2023/06/07 01:58:56;;;;;;;9.00;6.17;;;;;;;15.20;100.00;96269.59;6178097;23;20429;-79
2023/06/07 02:01:30;;;;;;;10.30;6.70;;;;;;;15.32;100.00;96265.44;6178903;23;20016;-80
2023/06/07 02:04:00;;;;;;;8.20;5.90;;;;;;;15.17;100.00;96261.19;6179281;23;20020;-80
2023/06/07 02:06:35;;;;;;;11.07;6.37;;;;;;;15.09;100.00;96262.13;6152206;23;20015;-80
2023/06/07 02:09:09;;;;;;;7.70;6.23;;;;;;;14.87;100.00;96263.09;6154928;23;20069;-80
2023/06/07 02:11:37;;;;;;;7.93;6.00;;;;;;;14.99;100.00;96257.13;6155954;23;20016;-79
2023/06/07 02:14:04;;;;;;;8.43;6.70;;;;;;;14.94;100.00;96262.16;6155804;23;20115;-80
2023/06/07 02:16:40;;;;;;;13.30;6.40;;;;;;;14.87;100.00;96263.09;6180601;23;20083;-80
2023/06/07 02:19:09;;;;;;;8.50;6.20;;;;;;;14.64;100.00;96257.91;6155772;23;20088;-80
2023/06/07 02:21:49;;;;;;;9.30;6.50;;;;;;;14.82;100.00;96263.63;6157489;23;20000;-80
2023/06/07 02:24:16;;;;;;;9.83;7.30;;;;;;;14.85;100.00;96256.16;6180878;23;20016;-79
2023/06/07 02:26:42;;;;;;;8.07;6.90;;;;;;;14.80;100.00;96265.66;6158484;23;20082;-80
2023/06/07 02:29:08;;;;;;;8.60;6.67;;;;;;;14.87;100.00;96271.03;6188162;23;20337;-80
2023/06/07 02:31:34;;;;;;;9.13;6.87;;;;;;;14.95;100.00;96278.88;6215082;23;20056;-81
2023/06/07 02:34:01;;;;;;;8.10;6.63;;;;;;;14.91;100.00;96267.00;6163524;23;20005;-79
2023/06/07 02:36:32;;;;;;;7.27;5.83;;;;;;;14.80;100.00;96263.81;6163955;23;20067;-80
2023/06/07 02:38:58;;;;;;;8.43;6.07;;;;;;;14.65;100.00;96257.72;6160423;23;20702;-80
2023/06/07 02:41:23;;;;;;;8.70;6.50;;;;;;;14.75;100.00;96257.44;6181520;23;20007;-80
2023/06/07 02:43:49;;;;;;;8.17;6.13;;;;;;;14.77;100.00;96258.09;6180460;23;20004;-79
2023/06/07 02:46:15;;;;;;;7.80;6.70;;;;;;;14.56;100.00;96259.66;6181130;23;20009;-80
2023/06/07 02:48:41;;;;;;;9.23;7.00;;;;;;;14.45;100.00;96257.41;6156204;23;20016;-80
2023/06/07 02:51:07;;;;;;;8.00;6.47;;;;;;;14.50;100.00;96262.19;6178941;23;20008;-79
2023/06/07 02:53:33;;;;;;;7.67;6.50;;;;;;;14.52;100.00;96261.03;6150617;23;20015;-80
2023/06/07 02:55:59;;;;;;;8.13;6.77;;;;;;;14.41;100.00;96265.91;6172161;23;20005;-80
2023/06/07 02:58:25;;;;;;;10.43;6.60;;;;;;;14.36;100.00;96267.28;6173486;23;20376;-80
2023/06/07 03:00:52;;;;;;;8.07;6.83;;;;;;;14.35;100.00;96272.75;6150898;23;20745;-78
2023/06/07 03:03:24;;;;;;;9.73;7.00;;;;;;;14.28;100.00;96270.00;6150283;23;20012;-79
2023/06/07 03:05:59;;;;;;;7.80;6.67;;;;;;;14.39;100.00;96271.41;6175970;23;20012;-78
2023/06/07 03:08:28;;;;;;;9.17;7.17;;;;;;;14.21;100.00;96269.09;6152506;23;20008;-79
2023/06/07 03:10:54;;;;;;;8.53;6.97;;;;;;;14.14;100.00;96274.28;6155550;23;20086;-78
2023/06/07 03:13:26;;;;;;;9.30;6.87;;;;;;;14.21;100.00;96268.28;6180523;23;20007;-79
2023/06/07 03:16:00;;;;;;;8.40;7.47;;;;;;;14.37;100.00;96271.56;6156144;23;20005;-79
2023/06/07 03:18:28;;;;;;;7.90;6.87;;;;;;;14.43;100.00;96275.31;6154742;23;20047;-79
2023/06/07 03:20:58;;;;;;;9.67;7.83;;;;;;;14.08;100.00;96275.03;6181902;23;20455;-79
2023/06/07 03:23:25;;;;;;;7.83;6.70;;;;;;;14.34;100.00;96286.97;6188023;23;20007;-79
2023/06/07 03:25:51;;;;;;;8.20;6.90;;;;;;;14.36;100.00;96275.22;6163508;23;20635;-79
2023/06/07 03:28:23;;;;;;;8.87;6.83;;;;;;;14.26;100.00;96282.59;6189689;23;20016;-79
2023/06/07 03:30:48;;;;;;;8.40;6.70;;;;;;;14.39;100.00;96282.81;6212181;23;20008;-79
2023/06/07 03:33:19;;;;;;;10.77;6.83;;;;;;;14.51;100.00;96275.25;6164496;23;20012;-79
2023/06/07 03:35:45;;;;;;;9.77;6.33;;;;;;;14.87;100.00;96278.97;6187773;23;20035;-79
2023/06/07 03:38:16;;;;;;;8.30;6.40;;;;;;;14.81;100.00;96288.47;6160953;23;20475;-79
2023/06/07 03:40:42;;;;;;;8.67;6.53;;;;;;;14.80;100.00;96285.00;6179713;23;20019;-79
2023/06/07 03:43:09;;;;;;;8.77;7.00;;;;;;;14.90;100.00;96291.84;6155249;23;20016;-79
2023/06/07 03:45:35;;;;;;;8.67;6.77;;;;;;;14.79;100.00;96282.56;6156083;23;20098;-79
2023/06/07 03:48:09;;;;;;;8.97;7.33;;;;;;;14.31;100.00;96298.75;6181778;23;20011;-79
2023/06/07 03:50:34;;;;;;;8.83;6.90;;;;;;;14.56;100.00;96295.88;6180546;23;20005;-79
2023/06/07 03:53:00;;;;;;;10.17;7.13;;;;;;;14.71;100.00;96296.69;6180926;23;20498;-79
2023/06/07 03:55:25;;;;;;;8.23;6.23;;;;;;;14.74;100.00;96295.50;6181256;23;20511;-78
2023/06/07 03:57:51;;;;;;;10.10;7.20;;;;;;;14.72;100.00;96294.84;6180122;23;20012;-79
2023/06/07 04:00:18;;;;;;;8.13;7.10;;;;;;;14.64;100.00;96302.91;6155976;23;20516;-79
2023/06/07 04:02:47;;;;;;;8.37;6.40;;;;;;;14.70;100.00;96296.88;6155919;23;20309;-79
2023/06/07 04:05:17;;;;;;;7.87;6.47;;;;;;;14.44;100.00;96302.59;6180767;23;20103;-79
2023/06/07 04:07:43;;;;;;;8.90;6.40;;;;;;;14.55;100.00;96302.16;6179809;23;20009;-79
2023/06/07 04:10:08;;;;;;;8.03;6.40;;;;;;;14.69;100.00;96301.38;6154895;23;20007;-79
2023/06/07 04:12:34;;;;;;;8.57;7.10;;;;;;;14.66;100.00;96304.38;6154738;23;20015;-79
2023/06/07 04:15:09;;;;;;;7.83;6.47;;;;;;;14.69;100.00;96301.38;6179386;23;20001;-80
2023/06/07 04:17:35;;;;;;;10.73;7.70;;;;;;;14.51;100.00;96306.19;6179591;23;20119;-79
2023/06/07 04:20:01;;;;;;;10.80;7.20;;;;;;;14.50;100.00;96302.72;6154417;23;20001;-79
2023/06/07 04:22:27;;;;;;;8.40;6.90;;;;;;;14.54;100.00;96301.34;6154542;23;20004;-79
2023/06/07 04:24:53;;;;;;;9.37;7.37;;;;;;;14.57;100.00;96302.81;6154441;23;20005;-79
2023/06/07 04:27:19;;;;;;;11.23;8.30;;;;;;;14.60;100.00;96299.81;6152198;23;20007;-80
2023/06/07 04:29:48;;;;;;;9.53;8.20;;;;;;;14.12;100.00;96302.75;6151006;23;20008;-78
2023/06/07 04:32:18;;;;;;;11.40;8.27;;;;;;;14.42;100.00;96302.78;6148257;23;20020;-79
2023/06/07 04:34:46;;;;;;;10.13;8.37;;;;;;;14.43;100.00;96301.78;6170132;23;20087;-79
2023/06/07 04:37:12;;;;;;;9.53;7.93;;;;;;;14.83;100.00;96292.59;6145263;23;20004;-79
2023/06/07 04:39:40;;;;;;;9.97;8.83;;;;;;;15.06;100.00;96302.25;6145162;23;20015;-79
2023/06/07 04:42:09;;;;;;;9.70;8.30;;;;;;;15.15;100.00;96301.09;6169224;23;20013;-80
2023/06/07 04:44:36;;;;;;;10.07;8.77;;;;;;;15.26;100.00;96295.34;6169482;23;20061;-79
2023/06/07 04:47:13;;;;;;;10.33;8.40;;;;;;;15.59;100.00;96288.72;6169207;23;20015;-80
2023/06/07 04:49:40;;;;;;;10.47;7.77;;;;;;;15.69;100.00;96292.75;6147780;23;20007;-80
2023/06/07 04:52:06;;;;;;;9.83;8.10;;;;;;;15.47;100.00;96296.38;6170770;23;20577;-81
2023/06/07 04:54:36;;;;;;;8.23;7.17;;;;;;;15.71;100.00;96293.38;6148201;23;20008;-80
2023/06/07 04:57:02;;;;;;;11.30;8.10;;;;;;;15.42;100.00;96302.22;6149848;23;20384;-80
2023/06/07 04:59:34;;;;;;;10.37;8.13;;;;;;;15.86;100.00;96295.97;6175077;23;20063;-79
2023/06/07 05:02:02;;;;;;;12.90;9.02;;;;;;;15.56;100.00;96303.19;6177011;23;20445;-79
2023/06/07 05:04:27;;;;;;;10.40;8.77;;;;;;;15.48;100.00;96304.13;6157304;23;20012;-80
2023/06/07 05:06:58;;;;;;;11.30;8.60;;;;;;;15.64;100.00;96296.94;6154884;23;20066;-80
2023/06/07 05:09:25;;;;;;;10.20;8.47;;;;;;;15.90;100.00;96302.53;6154740;23;20013;-80
2023/06/07 05:11:51;;;;;;;10.13;8.43;;;;;;;15.93;100.00;96301.34;6179192;23;20000;-81
2023/06/07 05:14:17;;;;;;;11.40;9.03;;;;;;;16.14;100.00;96290.69;6179256;23;20008;-80
2023/06/07 05:16:44;;;;;;;14.33;11.40;;;;;;;16.50;100.00;96303.00;6154479;23;20012;-80
2023/06/07 05:19:11;;;;;;;17.00;11.37;;;;;;;16.31;100.00;96298.34;6180035;23;20396;-80
2023/06/07 05:21:40;;;;;;;11.13;9.87;;;;;;;16.45;100.00;96297.44;6157887;23;20112;-80
2023/06/07 05:24:05;;;;;;;11.23;10.10;;;;;;;16.93;100.00;96292.19;6157037;23;20012;-80
2023/06/07 05:26:31;;;;;;;10.63;9.53;;;;;;;17.28;100.00;96281.50;6183301;23;20441;-81
2023/06/07 05:28:57;;;;;;;12.13;10.83;;;;;;;17.19;100.00;96292.31;6158621;23;20004;-82
2023/06/07 05:31:22;;;;;;;11.50;10.30;;;;;;;17.25;100.00;96289.88;6160571;23;20015;-78
2023/06/07 05:33:52;;;;;;;10.03;9.00;;;;;;;16.91;100.00;96294.25;6156599;23;20055;-80
2023/06/07 05:36:20;;;;;;;10.30;8.77;;;;;;;17.11;100.00;96295.16;6186495;23;20021;-80
2023/06/07 05:38:46;;;;;;;9.37;8.27;;;;;;;17.28;100.00;96294.81;6188700;23;20425;-80
2023/06/07 05:41:11;;;;;;;11.70;7.27;;;;;;;17.79;100.00;96294.34;6186191;23;20001;-83
2023/06/07 05:43:37;;;;;;;9.27;8.27;;;;;;;17.46;100.00;96291.56;6212743;23;20004;-83
2023/06/07 05:46:03;;;;;;;11.53;8.07;;;;;;;17.53;100.00;96287.09;6162435;23;20009;-82
2023/06/07 05:48:29;;;;;;;10.27;7.27;;;;;;;18.04;100.00;96290.06;6162581;23;20004;-82
2023/06/07 05:50:56;;;;;;;10.37;9.03;;;;;;;18.25;100.00;96294.34;6162488;23;20012;-84
2023/06/07 05:53:23;;;;;;;9.40;8.40;;;;;;;18.19;100.00;96287.19;6187507;23;20008;-81
2023/06/07 05:55:48;;;;;;;11.03;7.20;;;;;;;18.85;100.00;96288.94;6186643;23;20001;-83
2023/06/07 05:58:14;;;;;;;9.27;8.13;;;;;;;18.78;100.00;96288.16;6161656;23;20032;-83
2023/06/07 06:00:44;;;;;;;10.23;7.97;;;;;;;18.64;100.00;96283.84;6162699;23;20424;-83
2023/06/07 06:03:10;;;;;;;9.53;8.03;;;;;;;18.57;100.00;96292.66;6162008;23;20095;-84
2023/06/07 06:05:35;;;;;;;10.43;8.67;;;;;;;18.82;100.00;96292.03;6158611;23;20015;-83
2023/06/07 06:08:02;;;;;;;11.87;9.37;;;;;;;18.88;100.00;96285.88;6158704;23;20013;-84
2023/06/07 06:10:27;;;;;;;23.08;11.05;;;;;;;19.79;100.00;96282.16;6155702;23;20008;-83
2023/06/07 06:12:53;;;;;;;12.27;9.87;;;;;;;19.65;100.00;96288.59;6180018;23;20000;-84
2023/06/07 06:15:19;;;;;;;9.15;7.95;;;;;;;20.10;100.00;96289.31;6153954;23;20004;-84
2023/06/07 06:17:44;;;;;;;25.75;10.90;;;;;;;20.34;100.00;96289.50;6178736;23;20440;-83
2023/06/07 06:20:12;;;;;;;9.85;8.40;;;;;;;20.99;100.00;96281.06;6155393;23;20001;-84
2023/06/07 06:22:37;;;;;;;11.48;8.90;;;;;;;20.58;100.00;96285.22;6180361;23;20016;-83
2023/06/07 06:25:04;;;;;;;12.80;8.80;;;;;;;21.30;100.00;96286.25;6180852;23;20437;-83
2023/06/07 06:27:30;;;;;;;15.02;8.38;;;;;;;21.63;100.00;96285.84;6180875;23;20035;-83
2023/06/07 06:29:56;;;;;;;8.93;7.57;;;;;;;21.27;100.00;96288.56;6154926;23;20641;-82
2023/06/07 06:32:21;;;;;;;9.55;7.13;;;;;;;22.03;100.00;96289.75;6154091;23;20245;-83
2023/06/07 06:34:55;;;;;;;8.63;7.72;;;;;;;21.97;100.00;96285.34;6178234;23;20012;-83
2023/06/07 06:37:21;;;;;;;8.43;7.10;;;;;;;22.61;100.00;96283.69;6153657;23;20044;-85
2023/06/07 06:39:47;;;;;;;8.05;7.10;;;;;;;21.42;100.00;96284.44;6153904;23;20008;-84
2023/06/07 06:42:12;;;;;;;9.18;8.20;;;;;;;22.14;100.00;96288.97;6156213;23;20118;-83
2023/06/07 06:45:05;;;;;;;8.40;7.35;;;;;;;22.87;100.00;96286.91;6161809;23;20011;-83
2023/06/07 06:47:30;;;;;;;7.50;6.40;;;;;;;22.03;100.00;96289.75;6154107;23;20425;-85
2023/06/07 06:49:59;;;;;;;11.00;6.40;;;;;;;22.91;100.00;96290.75;6154666;23;20004;-81
2023/06/07 06:52:25;;;;;;;8.55;6.63;;;;;;;22.72;100.00;96295.44;6153660;23;19996;-85
2023/06/07 06:54:50;;;;;;;8.57;6.70;;;;;;;22.77;100.00;96280.28;6152121;23;20020;-83
2023/06/07 06:57:16;;;;;;;7.97;6.10;;;;;;;23.79;100.00;96283.41;6178501;23;20001;-83
2023/06/07 06:59:43;;;;;;;18.67;7.28;;;;;;;24.05;100.00;96276.59;6157390;23;20055;-84
2023/06/07 07:02:10;;;;;;;8.90;6.70;;;;;;;23.39;100.00;96284.25;6158129;23;20004;-84
2023/06/07 07:04:36;;;;;;;7.43;6.00;;;;;;;23.33;100.00;96290.56;6160425;23;20004;-84
2023/06/07 07:07:05;;;;;;;8.80;6.22;;;;;;;23.62;100.00;96286.03;6186651;23;20008;-84
2023/06/07 07:09:30;;;;;;;12.93;7.90;;;;;;;24.66;100.00;96278.38;6158456;23;20032;-84
2023/06/07 07:11:56;;;;;;;6.88;5.13;;;;;;;25.25;100.00;96285.09;6157602;23;20039;-83
2023/06/07 07:14:21;;;;;;;6.68;5.57;;;;;;;25.03;100.00;96279.69;6165367;23;20337;-85
2023/06/07 07:16:53;;;;;;;12.38;6.15;;;;;;;25.53;100.00;96284.88;6147937;23;20387;-84
2023/06/07 07:19:22;;;;;;;6.17;4.67;;;;;;;26.00;100.00;96292.38;6168446;23;20009;-84
2023/06/07 07:21:51;;;;;;;7.22;5.03;;;;;;;25.34;100.00;96283.59;6169697;23;20404;-84
2023/06/07 07:24:17;;;;;;;6.20;5.15;;;;;;;25.39;100.00;96286.34;6205263;23;20373;-85
2023/06/07 07:26:43;;;;;;;11.93;6.00;;;;;;;26.54;100.00;96284.22;6185287;23;20087;-84
2023/06/07 07:29:11;;;;;;;7.80;6.10;;;;;;;26.96;99.14;96287.97;6185078;23;20009;-85
2023/06/07 07:31:37;;;;;;;7.45;4.65;;;;;;;27.72;91.25;96284.78;6159941;23;20349;-84
2023/06/07 07:34:03;;;;;;;6.43;4.72;;;;;;;25.55;100.00;96290.84;6184952;23;20005;-84
2023/06/07 07:36:33;;;;;;;6.07;4.70;;;;;;;24.75;100.00;96288.69;6160348;23;20020;-84
2023/06/07 07:39:04;;;;;;;6.35;4.68;;;;;;;26.39;99.01;96302.13;6161561;23;20047;-84
2023/06/07 07:41:33;;;;;;;5.35;4.00;;;;;;;25.76;100.00;96296.44;6188238;23;20001;-83
2023/06/07 07:43:59;;;;;;;6.47;5.10;;;;;;;26.71;100.00;96286.75;6160794;23;20009;-84
2023/06/07 07:46:25;;;;;;;10.27;4.55;;;;;;;27.31;96.76;96295.47;6182982;23;20015;-84
2023/06/07 07:48:52;;;;;;;5.88;4.03;;;;;;;26.52;97.97;96294.44;6180700;23;20008;-84
2023/06/07 07:51:20;;;;;;;12.95;4.57;;;;;;;28.52;89.46;96287.03;6170638;23;20089;-84
2023/06/07 07:53:47;;;;;;;5.85;3.85;;;;;;;27.43;91.17;96300.63;6206994;23;20036;-83
2023/06/07 07:56:14;;;;;;;6.90;3.65;;;;;;;27.52;90.76;96301.75;6158309;23;20450;-84
2023/06/07 07:58:40;;;;;;;3.72;2.95;;;;;;;26.56;96.22;96302.84;6182388;23;20039;-85
2023/06/07 08:01:08;;;;;;;4.55;3.40;;;;;;;26.90;91.15;96299.81;6157829;23;19997;-84
2023/06/07 08:03:34;;;;;;;4.32;3.30;;;;;;;27.35;93.48;96298.44;6211922;23;20036;-84
2023/06/07 08:06:04;;;;;;;6.07;3.38;;;;;;;27.22;90.09;96295.13;6158929;23;20027;-84
2023/06/07 08:08:29;;;;;;;5.28;3.28;;;;;;;28.95;81.04;96285.63;6155252;23;20005;-83
2023/06/07 08:10:55;;;;;;;4.15;3.03;;;;;;;29.12;74.33;96288.03;6156156;23;20071;-82
2023/06/07 08:13:22;;;;;;;4.60;2.35;;;;;;;28.87;74.58;96292.41;6178566;23;20021;-83
2023/06/07 08:15:47;;;;;;;6.20;2.90;;;;;;;28.73;79.30;96296.75;6183692;23;20000;-84
2023/06/07 08:18:17;;;;;;;3.67;2.38;;;;;;;28.51;79.53;96291.66;6159260;23;19996;-83
2023/06/07 08:20:42;;;;;;;3.92;2.45;;;;;;;27.85;81.26;96292.41;6184215;23;20330;-83
2023/06/07 08:23:08;;;;;;;2.97;2.03;;;;;;;27.11;88.11;96304.25;6180255;23;20063;-83
2023/06/07 08:25:34;;;;;;;3.63;2.80;;;;;;;28.99;75.79;96291.28;6154742;23;20000;-84
2023/06/07 08:28:00;;;;;;;5.45;3.00;;;;;;;28.01;78.64;96289.72;6155614;23;20012;-84
2023/06/07 08:30:26;;;;;;;4.10;2.90;;;;;;;28.15;84.04;96290.81;6156870;23;20357;-85
2023/06/07 08:32:51;;;;;;;5.40;2.40;;;;;;;28.41;81.05;96289.75;6181871;23;20028;-85
2023/06/07 08:35:17;;;;;;;6.85;2.33;;;;;;;28.47;81.67;96284.34;6156578;23;20009;-83
2023/06/07 08:37:46;;;;;;;3.55;2.20;;;;;;;28.63;85.26;96283.22;6181458;23;20040;-83
2023/06/07 08:40:17;;;;;;;7.03;2.47;;;;;;;28.03;84.65;96288.34;6182715;23;20421;-84
2023/06/07 08:42:42;;;;;;;3.35;2.22;;;;;;;30.42;69.30;96275.09;6159203;23;20005;-84
2023/06/07 08:45:08;;;;;;;3.33;2.30;;;;;;;29.84;69.43;96281.19;6162436;23;20019;-83
2023/06/07 08:47:36;;;;;;;4.60;2.85;;;;;;;29.16;74.76;96286.38;6177007;23;20002;-84
2023/06/07 08:50:02;;;;;;;3.72;2.15;;;;;;;31.15;61.24;96282.22;6198333;23;20012;-84
2023/06/07 08:52:31;;;;;;;5.05;2.33;;;;;;;31.67;58.58;96285.97;6174103;23;20034;-83
2023/06/07 08:55:01;;;;;;;4.00;2.40;;;;;;;30.67;61.46;96290.31;6159126;23;20100;-84
2023/06/07 08:57:28;;;;;;;3.15;1.95;;;;;;;28.58;75.46;96285.97;6158565;23;20008;-84
2023/06/07 08:59:54;;;;;;;3.85;2.50;;;;;;;28.88;73.06;96279.69;6184637;23;20008;-84
2023/06/07 09:02:21;;;;;;;3.25;2.20;;;;;;;29.99;69.13;96282.19;6188681;23;20005;-84
2023/06/07 09:04:47;;;;;;;2.17;1.80;;;;;;;30.40;61.18;96271.03;6187898;23;20019;-85
2023/06/07 09:07:12;;;;;;;4.28;2.10;;;;;;;28.49;74.66;96280.28;6162239;23;20404;-84
2023/06/07 09:09:40;;;;;;;2.33;1.70;;;;;;;27.48;74.48;96282.53;6189559;23;20004;-84
2023/06/07 09:12:10;;;;;;;2.10;1.60;;;;;;;29.17;70.66;96274.44;6164653;23;20016;-85
2023/06/07 09:14:37;;;;;;;2.53;1.63;;;;;;;28.52;73.44;96281.63;6163479;23;20012;-84
2023/06/07 09:17:02;;;;;;;2.85;1.67;;;;;;;29.36;62.47;96282.78;6184877;23;20079;-85
2023/06/07 09:19:41;;;;;;;3.60;2.30;;;;;;;28.37;74.21;96274.28;6189591;23;20024;-85
2023/06/07 09:22:13;;;;;;;3.38;1.50;;;;;;;28.05;68.12;96285.41;6187227;23;20455;-84
2023/06/07 09:24:39;;;;;;;;;;;;;;;28.77;64.59;96286.19;6188406;23;20008;-84
2023/06/07 09:27:05;;;;;;;3.55;1.75;;;;;;;29.64;58.60;96278.59;6161718;23;19907;-83
2023/06/07 09:29:38;;;;;;;3.05;1.85;;;;;;;30.71;50.01;96283.22;6162041;23;20054;-84
2023/06/07 09:32:18;;;;;;;2.40;1.65;;;;;;;30.72;52.38;96278.63;6187256;23;20007;-87
2023/06/07 09:34:47;;;;;;;4.80;1.73;;;;;;;29.95;55.33;96279.25;6163081;23;20096;-84
2023/06/07 09:37:13;;;;;;;2.85;1.60;;;;;;;29.94;52.98;96276.78;6162975;23;20016;-84
2023/06/07 09:39:39;;;;;;;2.38;1.70;;;;;;;28.06;61.95;96284.31;6159474;23;20008;-83
2023/06/07 09:42:15;;;;;;;2.13;1.60;;;;;;;29.57;56.40;96287.00;6182323;23;20039;-84
2023/06/07 09:44:41;;;;;;;9.48;2.13;;;;;;;30.74;49.73;96276.41;6157929;23;20008;-85
2023/06/07 09:47:20;;;;;;;2.70;1.75;;;;;;;31.76;45.80;96268.97;6182072;23;20833;-85
2023/06/07 09:49:45;;;;;;;2.00;1.52;;;;;;;31.79;45.74;96268.41;6182861;23;20058;-85
2023/06/07 09:52:15;;;;;;;2.75;1.85;;;;;;;32.09;42.66;96276.16;6159225;23;20079;-85
2023/06/07 09:54:43;;;;;;;3.42;1.92;;;;;;;31.44;44.51;96273.22;6182967;23;20343;-85
2023/06/07 09:57:24;;;;;;;3.95;1.77;;;;;;;31.58;46.55;96274.13;6182714;23;20008;-84
2023/06/07 10:00:14;;;;;;;19.10;17.00;;;;;;;30.96;46.04;96268.63;6183240;23;20054;-84
2023/06/07 10:02:44;;;;;;;5.43;3.45;;;;;;;33.43;39.42;96258.22;6213204;23;20000;-84
2023/06/07 10:05:14;;;;;;;2.42;1.90;;;;;;;29.65;52.20;96271.31;6187396;23;20454;-84
2023/06/07 10:07:48;;;;;;;3.20;1.70;;;;;;;30.47;49.41;96258.75;6161439;23;20035;-84
2023/06/07 10:10:17;;;;;;;3.30;2.05;;;;;;;30.76;47.22;96268.84;6166218;23;20349;-83
2023/06/07 10:12:54;;;;;;;3.10;1.90;;;;;;;31.85;40.20;96259.88;6189109;23;20031;-84
2023/06/07 10:15:24;;;;;;;3.33;1.98;;;;;;;32.03;43.43;96252.03;6189442;23;20012;-84
2023/06/07 10:18:08;;;;;;;3.15;1.90;;;;;;;31.01;43.85;96259.59;6164197;23;20008;-84
2023/06/07 10:20:38;;;;;;;2.60;1.73;;;;;;;32.02;41.32;96253.94;6189297;23;19996;-84
2023/06/07 10:23:06;;;;;;;2.88;1.70;;;;;;;31.29;43.45;96252.47;6163646;23;20091;-83
2023/06/07 10:26:11;;;;;;;3.33;1.77;;;;;;;32.41;40.74;96252.75;6191284;23;20566;-82
2023/06/07 10:29:08;;;;;;;3.53;2.13;;;;;;;31.85;40.52;96250.91;6042160;23;20015;-83
2023/06/07 10:31:46;;;;;;;3.45;1.63;;;;;;;32.62;38.07;96248.59;6041905;23;20066;-85
2023/06/07 10:34:23;;;;;;;4.60;2.03;;;;;;;33.26;36.13;96246.00;6018894;23;20439;-87
2023/06/07 10:36:49;;;;;;;3.65;2.38;;;;;;;33.30;35.37;96240.75;6107627;23;20013;-86
2023/06/07 10:39:15;;;;;;;2.92;1.90;;;;;;;31.41;37.41;96246.63;6186327;23;20000;-88
2023/06/07 10:41:41;;;;;;;3.92;1.80;;;;;;;31.67;37.57;96244.38;6187360;23;20005;-86
2023/06/07 10:44:10;;;;;;;3.40;1.83;;;;;;;32.91;34.85;96233.09;6185578;23;20008;-85
2023/06/07 10:46:35;;;;;;;2.78;1.70;;;;;;;32.57;37.53;96235.09;6189057;23;20000;-88
2023/06/07 10:49:03;;;;;;;2.55;1.60;;;;;;;32.12;37.06;96240.16;6164733;23;20714;-87
2023/06/07 10:51:48;;;;;;;3.47;1.88;;;;;;;32.79;36.22;96239.84;6185300;23;20035;-86
2023/06/07 10:54:32;;;;;;;3.40;2.00;;;;;;;32.63;34.24;96239.34;6161837;23;20063;-87
2023/06/07 10:57:04;;;;;;;4.03;2.35;;;;;;;33.17;32.66;96233.44;6186098;23;20012;-86
2023/06/07 10:59:32;;;;;;;4.00;2.15;;;;;;;31.73;32.76;96243.22;6161748;23;20028;-85
2023/06/07 11:02:38;;;;;;;3.55;2.08;;;;;;;32.30;33.58;96240.44;6136845;23;20008;-86
2023/06/07 11:05:05;;;;;;;2.72;1.90;;;;;;;32.72;33.11;96233.19;6161641;23;20433;-84
2023/06/07 11:07:41;;;;;;;3.38;2.03;;;;;;;32.50;30.68;96240.13;6185341;23;20437;-84
2023/06/07 11:10:13;;;;;;;5.22;2.58;;;;;;;31.99;32.64;96237.41;6160917;23;20040;-84
2023/06/07 11:13:48;;;;;;;3.80;2.08;;;;;;;32.21;30.32;96236.78;6211591;23;20348;-87
2023/06/07 11:16:30;;;;;;;13.55;2.92;;;;;;;33.02;30.01;96232.63;6183019;23;20012;-86
2023/06/07 11:19:09;;;;;;;5.15;2.60;;;;;;;33.03;29.24;96231.53;6185420;23;20012;-85
2023/06/07 11:22:23;;;;;;;3.63;2.20;;;;;;;32.72;31.99;96233.97;6160396;23;20005;-86
2023/06/07 11:25:11;;;;;;;14.63;2.70;;;;;;;32.91;32.17;96228.47;6160757;23;20008;-85
2023/06/07 11:27:39;;;;;;;13.07;3.70;;;;;;;32.42;32.13;96224.47;6159460;23;20005;-86
2023/06/07 11:30:18;;;;;;;41.63;4.90;;;;;;;32.69;32.22;96228.34;6158136;23;20070;-87
2023/06/07 11:32:53;;;;;;;10.90;2.60;;;;;;;32.47;32.02;96224.38;6159612;23;20633;-86
2023/06/07 11:35:54;;;;;;;38.95;5.93;;;;;;;32.82;32.85;96224.81;6175431;23;20527;-85